sensor_id;sensor_type;location;lat;lon;timestamp;P1;P4;P2;P0;N10;N4;N25;N1;N05;TS
44530;SPS30;30240;47.418;0.700;2023-04-08T00:01:09;5.8451424;;5.8451424;;;;;;;
44530;SPS30;30240;47.418;0.700;2023-04-08T00:03:33;5.3847895;;5.3847895;;;;;;;
44530;SPS30;30240;47.418;0.700;2023-04-08T00:05:58;5.3847895;;5.3847895;;;;;;;
44530;SPS30;30240;47.418;0.700;2023-04-08T00:08:23;5.4441795;;5.4441795;;;;;;;
44530;SPS30;30240;47.418;0.700;2023-04-08T00:10:48;5.9530025;;5.9530025;;;;;;;
44530;SPS30;30240;47.418;0.700;2023-04-08T00:13:13;5.774523;;5.774523;;;;;;;
44530;SPS30;30240;47.418;0.700;2023-04-08T00:15:39;5.697353;;5.697353;;;;;;;
44530;SPS30;30240;47.418;0.700;2023-04-08T00:18:03;5.654152;;5.654152;;;;;;;
44530;SPS30;30240;47.418;0.700;2023-04-08T00:20:29;5.654152;;5.654152;;;;;;;
44530;SPS30;30240;47.418;0.700;2023-04-08T00:22:53;5.032817;;5.032817;;;;;;;
44530;SPS30;30240;47.418;0.700;2023-04-08T00:25:18;5.633439;;5.633439;;;;;;;
44530;SPS30;30240;47.418;0.700;2023-04-08T00:27:43;5.09696;;5.09696;;;;;;;
44530;SPS30;30240;47.418;0.700;2023-04-08T00:30:09;5.825055;;5.825055;;;;;;;
44530;SPS30;30240;47.418;0.700;2023-04-08T00:32:33;5.825055;;5.825055;;;;;;;
44530;SPS30;30240;47.418;0.700;2023-04-08T00:34:58;5.104825;;5.104825;;;;;;;
44530;SPS30;30240;47.418;0.700;2023-04-08T00:37:23;5.890303;;5.890303;;;;;;;
44530;SPS30;30240;47.418;0.700;2023-04-08T00:39:48;5.888754;;5.888754;;;;;;;
44530;SPS30;30240;47.418;0.700;2023-04-08T00:42:13;5.6995325;;5.6995325;;;;;;;
44530;SPS30;30240;47.418;0.700;2023-04-08T00:44:38;5.6995325;;5.6995325;;;;;;;
44530;SPS30;30240;47.418;0.700;2023-04-08T00:47:03;5.517627;;5.517627;;;;;;;
44530;SPS30;30240;47.418;0.700;2023-04-08T00:49:29;5.9512534;;5.9512534;;;;;;;
44530;SPS30;30240;47.418;0.700;2023-04-08T00:51:53;6.0433917;;6.0433917;;;;;;;
44530;SPS30;30240;47.418;0.700;2023-04-08T00:54:18;5.005932;;5.005932;;;;;;;
44530;SPS30;30240;47.418;0.700;2023-04-08T00:56:43;5.005932;;5.005932;;;;;;;
44530;SPS30;30240;47.418;0.700;2023-04-08T00:59:09;5.7924676;;5.7924676;;;;;;;
44530;SPS30;30240;47.418;0.700;2023-04-08T01:01:36;5.766459;;5.766459;;;;;;;
44530;SPS30;30240;47.418;0.700;2023-04-08T01:04:00;5.6566234;;5.6566234;;;;;;;
44530;SPS30;30240;47.418;0.700;2023-04-08T01:06:26;5.6508355;;5.6508355;;;;;;;
44530;SPS30;30240;47.418;0.700;2023-04-08T01:08:48;5.6508355;;5.6508355;;;;;;;
44530;SPS30;30240;47.418;0.700;2023-04-08T01:11:13;5.459596;;5.459596;;;;;;;
44530;SPS30;30240;47.418;0.700;2023-04-08T01:13:39;6.036945;;6.036945;;;;;;;
44530;SPS30;30240;47.418;0.700;2023-04-08T01:16:04;6.199124;;6.199124;;;;;;;
44530;SPS30;30240;47.418;0.700;2023-04-08T01:18:28;5.896757;;5.896757;;;;;;;
44530;SPS30;30240;47.418;0.700;2023-04-08T01:20:53;5.896757;;5.896757;;;;;;;
44530;SPS30;30240;47.418;0.700;2023-04-08T01:23:19;6.3079505;;6.306759;;;;;;;
44530;SPS30;30240;47.418;0.700;2023-04-08T01:25:44;6.7928486;;6.792;;;;;;;
44530;SPS30;30240;47.418;0.700;2023-04-08T01:28:10;6.50133;;6.50133;;;;;;;
44530;SPS30;30240;47.418;0.700;2023-04-08T01:30:33;6.8227816;;6.8227816;;;;;;;
44530;SPS30;30240;47.418;0.700;2023-04-08T01:32:58;6.8227816;;6.8227816;;;;;;;
44530;SPS30;30240;47.418;0.700;2023-04-08T01:35:23;6.5904875;;6.5904875;;;;;;;
44530;SPS30;30240;47.418;0.700;2023-04-08T01:37:49;7.06324;;7.06324;;;;;;;
44530;SPS30;30240;47.418;0.700;2023-04-08T01:40:13;6.7460203;;6.7460203;;;;;;;
44530;SPS30;30240;47.418;0.700;2023-04-08T01:42:39;7.731628;;7.731628;;;;;;;
44530;SPS30;30240;47.418;0.700;2023-04-08T01:45:04;7.731628;;7.731628;;;;;;;
44530;SPS30;30240;47.418;0.700;2023-04-08T01:47:28;7.45099;;7.45099;;;;;;;
44530;SPS30;30240;47.418;0.700;2023-04-08T01:49:53;7.226187;;7.1799383;;;;;;;
44530;SPS30;30240;47.418;0.700;2023-04-08T01:52:19;7.0745983;;7.0745983;;;;;;;
44530;SPS30;30240;47.418;0.700;2023-04-08T01:54:43;7.6943865;;7.6943865;;;;;;;
44530;SPS30;30240;47.418;0.700;2023-04-08T01:57:09;8.512496;;8.512496;;;;;;;
44530;SPS30;30240;47.418;0.700;2023-04-08T01:59:34;8.512496;;8.512496;;;;;;;
44530;SPS30;30240;47.418;0.700;2023-04-08T02:01:59;7.1406417;;7.1406417;;;;;;;
44530;SPS30;30240;47.418;0.700;2023-04-08T02:04:23;7.2647276;;7.2647276;;;;;;;
44530;SPS30;30240;47.418;0.700;2023-04-08T02:06:48;7.604846;;7.604846;;;;;;;
44530;SPS30;30240;47.418;0.700;2023-04-08T02:09:13;7.88038;;7.88038;;;;;;;
44530;SPS30;30240;47.418;0.700;2023-04-08T02:11:38;7.88038;;7.88038;;;;;;;
44530;SPS30;30240;47.418;0.700;2023-04-08T02:14:04;7.649091;;7.649091;;;;;;;
44530;SPS30;30240;47.418;0.700;2023-04-08T02:16:30;8.2955885;;8.2955885;;;;;;;
44530;SPS30;30240;47.418;0.700;2023-04-08T02:18:54;8.064391;;8.064391;;;;;;;
44530;SPS30;30240;47.418;0.700;2023-04-08T02:21:18;8.987048;;8.889926;;;;;;;
44530;SPS30;30240;47.418;0.700;2023-04-08T02:23:45;8.987048;;8.889926;;;;;;;
44530;SPS30;30240;47.418;0.700;2023-04-08T02:26:12;7.826447;;7.826447;;;;;;;
44530;SPS30;30240;47.418;0.700;2023-04-08T02:28:33;9.245842;;9.245842;;;;;;;
44530;SPS30;30240;47.418;0.700;2023-04-08T02:30:58;9.28912;;9.260312;;;;;;;
44530;SPS30;30240;47.418;0.700;2023-04-08T02:33:23;9.315932;;9.145248;;;;;;;
44530;SPS30;30240;47.418;0.700;2023-04-08T02:35:49;9.315932;;9.145248;;;;;;;
44530;SPS30;30240;47.418;0.700;2023-04-08T02:38:13;8.942239;;8.942239;;;;;;;
44530;SPS30;30240;47.418;0.700;2023-04-08T02:40:38;8.927564;;8.8459015;;;;;;;
44530;SPS30;30240;47.418;0.700;2023-04-08T02:43:03;9.740473;;9.582135;;;;;;;
44530;SPS30;30240;47.418;0.700;2023-04-08T02:45:29;7.83513;;7.7862163;;;;;;;
44530;SPS30;30240;47.418;0.700;2023-04-08T02:47:54;7.83513;;7.7862163;;;;;;;
44530;SPS30;30240;47.418;0.700;2023-04-08T02:50:18;9.0047;;8.991193;;;;;;;
44530;SPS30;30240;47.418;0.700;2023-04-08T02:52:43;8.795687;;8.795687;;;;;;;
44530;SPS30;30240;47.418;0.700;2023-04-08T02:55:09;9.672593;;9.672593;;;;;;;
44530;SPS30;30240;47.418;0.700;2023-04-08T02:57:34;7.9053855;;7.9051666;;;;;;;
44530;SPS30;30240;47.418;0.700;2023-04-08T02:59:58;7.9053855;;7.9051666;;;;;;;
44530;SPS30;30240;47.418;0.700;2023-04-08T03:02:23;9.819849;;9.780419;;;;;;;
44530;SPS30;30240;47.418;0.700;2023-04-08T03:04:48;9.637783;;9.556769;;;;;;;
44530;SPS30;30240;47.418;0.700;2023-04-08T03:07:13;8.93778;;8.855524;;;;;;;
44530;SPS30;30240;47.418;0.700;2023-04-08T03:09:38;8.912552;;8.910073;;;;;;;
44530;SPS30;30240;47.418;0.700;2023-04-08T03:12:03;8.912552;;8.910073;;;;;;;
44530;SPS30;30240;47.418;0.700;2023-04-08T03:14:28;9.354525;;9.224618;;;;;;;
44530;SPS30;30240;47.418;0.700;2023-04-08T03:16:53;10.05232;;9.883619;;;;;;;
44530;SPS30;30240;47.418;0.700;2023-04-08T03:19:18;9.661322;;9.514464;;;;;;;
44530;SPS30;30240;47.418;0.700;2023-04-08T03:21:43;9.181064;;9.0440645;;;;;;;
44530;SPS30;30240;47.418;0.700;2023-04-08T03:24:08;9.736802;;9.553498;;;;;;;
44530;SPS30;30240;47.418;0.700;2023-04-08T03:26:33;9.736802;;9.553498;;;;;;;
44530;SPS30;30240;47.418;0.700;2023-04-08T03:28:58;10.679225;;10.503244;;;;;;;
44530;SPS30;30240;47.418;0.700;2023-04-08T03:31:24;9.3728285;;9.32071;;;;;;;
44530;SPS30;30240;47.418;0.700;2023-04-08T03:33:48;10.681167;;10.664325;;;;;;;
44530;SPS30;30240;47.418;0.700;2023-04-08T03:36:13;9.320306;;9.120655;;;;;;;
44530;SPS30;30240;47.418;0.700;2023-04-08T03:38:38;9.320306;;9.120655;;;;;;;
44530;SPS30;30240;47.418;0.700;2023-04-08T03:41:03;10.111543;;9.923936;;;;;;;
44530;SPS30;30240;47.418;0.700;2023-04-08T03:43:28;11.516055;;11.329531;;;;;;;
44530;SPS30;30240;47.418;0.700;2023-04-08T03:45:54;10.637917;;10.42148;;;;;;;
44530;SPS30;30240;47.418;0.700;2023-04-08T03:48:18;10.107493;;9.968427;;;;;;;
44530;SPS30;30240;47.418;0.700;2023-04-08T03:50:43;10.107493;;9.968427;;;;;;;
44530;SPS30;30240;47.418;0.700;2023-04-08T03:53:08;10.765535;;10.587659;;;;;;;
44530;SPS30;30240;47.418;0.700;2023-04-08T03:55:33;11.155647;;11.148879;;;;;;;
44530;SPS30;30240;47.418;0.700;2023-04-08T03:57:58;11.555233;;11.215137;;;;;;;
44530;SPS30;30240;47.418;0.700;2023-04-08T04:00:23;10.41897;;10.252676;;;;;;;
44530;SPS30;30240;47.418;0.700;2023-04-08T04:02:48;10.41897;;10.252676;;;;;;;
44530;SPS30;30240;47.418;0.700;2023-04-08T04:05:13;11.1881695;;11.012787;;;;;;;
44530;SPS30;30240;47.418;0.700;2023-04-08T04:07:38;11.720784;;11.4268875;;;;;;;
44530;SPS30;30240;47.418;0.700;2023-04-08T04:10:04;10.9794655;;10.919788;;;;;;;
44530;SPS30;30240;47.418;0.700;2023-04-08T04:12:28;11.402453;;11.099271;;;;;;;
44530;SPS30;30240;47.418;0.700;2023-04-08T04:14:53;11.402453;;11.099271;;;;;;;
44530;SPS30;30240;47.418;0.700;2023-04-08T04:17:18;11.523949;;11.215605;;;;;;;
44530;SPS30;30240;47.418;0.700;2023-04-08T04:19:43;12.017619;;11.743693;;;;;;;
44530;SPS30;30240;47.418;0.700;2023-04-08T04:22:08;12.602421;;12.370188;;;;;;;
44530;SPS30;30240;47.418;0.700;2023-04-08T04:24:33;12.006947;;11.606551;;;;;;;
44530;SPS30;30240;47.418;0.700;2023-04-08T04:26:58;12.006947;;11.606551;;;;;;;
44530;SPS30;30240;47.418;0.700;2023-04-08T04:29:23;13.103715;;12.714813;;;;;;;
44530;SPS30;30240;47.418;0.700;2023-04-08T04:31:48;12.677647;;12.428187;;;;;;;
44530;SPS30;30240;47.418;0.700;2023-04-08T04:34:13;12.919193;;12.758853;;;;;;;
44530;SPS30;30240;47.418;0.700;2023-04-08T04:36:38;12.795846;;12.525163;;;;;;;
44530;SPS30;30240;47.418;0.700;2023-04-08T04:39:03;12.795846;;12.525163;;;;;;;
44530;SPS30;30240;47.418;0.700;2023-04-08T04:41:28;13.422818;;13.115235;;;;;;;
44530;SPS30;30240;47.418;0.700;2023-04-08T04:43:53;12.068765;;11.659111;;;;;;;
44530;SPS30;30240;47.418;0.700;2023-04-08T04:46:18;13.008755;;12.662649;;;;;;;
44530;SPS30;30240;47.418;0.700;2023-04-08T04:48:43;12.101214;;11.893515;;;;;;;
44530;SPS30;30240;47.418;0.700;2023-04-08T04:51:08;12.132968;;11.909625;;;;;;;
44530;SPS30;30240;47.418;0.700;2023-04-08T04:53:33;12.132968;;11.909625;;;;;;;
44530;SPS30;30240;47.418;0.700;2023-04-08T04:55:58;13.1517515;;12.756367;;;;;;;
44530;SPS30;30240;47.418;0.700;2023-04-08T04:58:23;12.775978;;12.548022;;;;;;;
44530;SPS30;30240;47.418;0.700;2023-04-08T05:00:48;12.683327;;12.428673;;;;;;;
44530;SPS30;30240;47.418;0.700;2023-04-08T05:03:13;14.051132;;13.809076;;;;;;;
44530;SPS30;30240;47.418;0.700;2023-04-08T05:05:38;14.051132;;13.809076;;;;;;;
44530;SPS30;30240;47.418;0.700;2023-04-08T05:08:03;13.603289;;13.16994;;;;;;;
44530;SPS30;30240;47.418;0.700;2023-04-08T05:10:28;13.971039;;13.599666;;;;;;;
44530;SPS30;30240;47.418;0.700;2023-04-08T05:12:54;13.19214;;12.877669;;;;;;;
44530;SPS30;30240;47.418;0.700;2023-04-08T05:15:18;14.778824;;14.457713;;;;;;;
44530;SPS30;30240;47.418;0.700;2023-04-08T05:17:43;14.778824;;14.457713;;;;;;;
44530;SPS30;30240;47.418;0.700;2023-04-08T05:20:09;13.975492;;13.57226;;;;;;;
44530;SPS30;30240;47.418;0.700;2023-04-08T05:22:33;14.192827;;14.005703;;;;;;;
44530;SPS30;30240;47.418;0.700;2023-04-08T05:24:58;14.571583;;14.308948;;;;;;;
44530;SPS30;30240;47.418;0.700;2023-04-08T05:27:23;14.700836;;14.165668;;;;;;;
44530;SPS30;30240;47.418;0.700;2023-04-08T05:29:48;14.700836;;14.165668;;;;;;;
44530;SPS30;30240;47.418;0.700;2023-04-08T05:32:13;15.378611;;14.841417;;;;;;;
44530;SPS30;30240;47.418;0.700;2023-04-08T05:34:38;13.744648;;13.400851;;;;;;;
44530;SPS30;30240;47.418;0.700;2023-04-08T05:37:04;15.042558;;14.676091;;;;;;;
44530;SPS30;30240;47.418;0.700;2023-04-08T05:39:28;15.33789;;14.886123;;;;;;;
44530;SPS30;30240;47.418;0.700;2023-04-08T05:41:53;15.33789;;14.886123;;;;;;;
44530;SPS30;30240;47.418;0.700;2023-04-08T05:44:18;15.751645;;15.198923;;;;;;;
44530;SPS30;30240;47.418;0.700;2023-04-08T05:46:44;15.446083;;14.895623;;;;;;;
44530;SPS30;30240;47.418;0.700;2023-04-08T05:49:08;14.145071;;13.738974;;;;;;;
44530;SPS30;30240;47.418;0.700;2023-04-08T05:51:33;15.207196;;14.782479;;;;;;;
44530;SPS30;30240;47.418;0.700;2023-04-08T05:53:59;15.207196;;14.782479;;;;;;;
44530;SPS30;30240;47.418;0.700;2023-04-08T05:56:24;14.786846;;14.394217;;;;;;;
44530;SPS30;30240;47.418;0.700;2023-04-08T05:58:49;15.433691;;14.804892;;;;;;;
44530;SPS30;30240;47.418;0.700;2023-04-08T06:01:13;14.806714;;14.522851;;;;;;;
44530;SPS30;30240;47.418;0.700;2023-04-08T06:03:38;16.705002;;16.401936;;;;;;;
44530;SPS30;30240;47.418;0.700;2023-04-08T06:06:03;16.705002;;16.401936;;;;;;;
44530;SPS30;30240;47.418;0.700;2023-04-08T06:08:28;16.666277;;16.184877;;;;;;;
44530;SPS30;30240;47.418;0.700;2023-04-08T06:10:53;16.828297;;16.161867;;;;;;;
44530;SPS30;30240;47.418;0.700;2023-04-08T06:13:18;17.709408;;17.148415;;;;;;;
44530;SPS30;30240;47.418;0.700;2023-04-08T06:15:43;15.697511;;15.248173;;;;;;;
44530;SPS30;30240;47.418;0.700;2023-04-08T06:18:08;15.697511;;15.248173;;;;;;;
44530;SPS30;30240;47.418;0.700;2023-04-08T06:20:34;16.12197;;15.646903;;;;;;;
44530;SPS30;30240;47.418;0.700;2023-04-08T06:22:58;16.157564;;15.648824;;;;;;;
44530;SPS30;30240;47.418;0.700;2023-04-08T06:25:23;14.716645;;14.274523;;;;;;;
44530;SPS30;30240;47.418;0.700;2023-04-08T06:27:48;14.838839;;14.436135;;;;;;;
44530;SPS30;30240;47.418;0.700;2023-04-08T06:30:13;14.670833;;14.423806;;;;;;;
44530;SPS30;30240;47.418;0.700;2023-04-08T06:32:38;14.670833;;14.423806;;;;;;;
44530;SPS30;30240;47.418;0.700;2023-04-08T06:35:04;15.786531;;15.173669;;;;;;;
44530;SPS30;30240;47.418;0.700;2023-04-08T06:37:28;14.817446;;14.213049;;;;;;;
44530;SPS30;30240;47.418;0.700;2023-04-08T06:39:53;14.816316;;14.478087;;;;;;;
44530;SPS30;30240;47.418;0.700;2023-04-08T06:42:18;14.808846;;14.388917;;;;;;;
44530;SPS30;30240;47.418;0.700;2023-04-08T06:44:43;14.808846;;14.388917;;;;;;;
44530;SPS30;30240;47.418;0.700;2023-04-08T06:47:08;14.952692;;14.47765;;;;;;;
44530;SPS30;30240;47.418;0.700;2023-04-08T06:49:33;15.695846;;15.17329;;;;;;;
44530;SPS30;30240;47.418;0.700;2023-04-08T06:51:58;15.158894;;14.920413;;;;;;;
44530;SPS30;30240;47.418;0.700;2023-04-08T06:54:23;14.959514;;14.568606;;;;;;;
44530;SPS30;30240;47.418;0.700;2023-04-08T06:56:48;14.959514;;14.568606;;;;;;;
44530;SPS30;30240;47.418;0.700;2023-04-08T06:59:13;13.544705;;13.214917;;;;;;;
44530;SPS30;30240;47.418;0.700;2023-04-08T07:01:38;14.306685;;13.880184;;;;;;;
44530;SPS30;30240;47.418;0.700;2023-04-08T07:04:03;13.352927;;12.900602;;;;;;;
44530;SPS30;30240;47.418;0.700;2023-04-08T07:06:28;13.21383;;12.823507;;;;;;;
44530;SPS30;30240;47.418;0.700;2023-04-08T07:08:54;13.21383;;12.823507;;;;;;;
44530;SPS30;30240;47.418;0.700;2023-04-08T07:11:19;13.688176;;13.227034;;;;;;;
44530;SPS30;30240;47.418;0.700;2023-04-08T07:13:44;13.385116;;12.851082;;;;;;;
44530;SPS30;30240;47.418;0.700;2023-04-08T07:16:08;13.277845;;12.855231;;;;;;;
44530;SPS30;30240;47.418;0.700;2023-04-08T07:18:33;13.124855;;12.779056;;;;;;;
44530;SPS30;30240;47.418;0.700;2023-04-08T07:20:58;13.124855;;12.779056;;;;;;;
44530;SPS30;30240;47.418;0.700;2023-04-08T07:23:23;12.762516;;12.502881;;;;;;;
44530;SPS30;30240;47.418;0.700;2023-04-08T07:25:48;12.43732;;12.172226;;;;;;;
44530;SPS30;30240;47.418;0.700;2023-04-08T07:28:13;11.724394;;11.494774;;;;;;;
44530;SPS30;30240;47.418;0.700;2023-04-08T07:30:38;11.943396;;11.752142;;;;;;;
44530;SPS30;30240;47.418;0.700;2023-04-08T07:33:03;11.943396;;11.752142;;;;;;;
44530;SPS30;30240;47.418;0.700;2023-04-08T07:35:28;13.43394;;13.006113;;;;;;;
44530;SPS30;30240;47.418;0.700;2023-04-08T07:37:53;11.275905;;11.040398;;;;;;;
44530;SPS30;30240;47.418;0.700;2023-04-08T07:40:18;11.526484;;11.142917;;;;;;;
44530;SPS30;30240;47.418;0.700;2023-04-08T07:42:43;11.016979;;10.696351;;;;;;;
44530;SPS30;30240;47.418;0.700;2023-04-08T07:45:09;11.016979;;10.696351;;;;;;;
44530;SPS30;30240;47.418;0.700;2023-04-08T07:47:33;10.87625;;10.576432;;;;;;;
44530;SPS30;30240;47.418;0.700;2023-04-08T07:49:58;12.6984;;12.433678;;;;;;;
44530;SPS30;30240;47.418;0.700;2023-04-08T07:52:24;9.849178;;9.783043;;;;;;;
44530;SPS30;30240;47.418;0.700;2023-04-08T07:54:48;9.759185;;9.598442;;;;;;;
44530;SPS30;30240;47.418;0.700;2023-04-08T07:57:14;10.349638;;10.254953;;;;;;;
44530;SPS30;30240;47.418;0.700;2023-04-08T07:59:38;10.349638;;10.254953;;;;;;;
44530;SPS30;30240;47.418;0.700;2023-04-08T08:02:03;10.818249;;10.523466;;;;;;;
44530;SPS30;30240;47.418;0.700;2023-04-08T08:04:29;9.529068;;9.425592;;;;;;;
44530;SPS30;30240;47.418;0.700;2023-04-08T08:06:53;10.597504;;10.280806;;;;;;;
44530;SPS30;30240;47.418;0.700;2023-04-08T08:09:18;10.729989;;10.407863;;;;;;;
44530;SPS30;30240;47.418;0.700;2023-04-08T08:11:43;10.729989;;10.407863;;;;;;;
44530;SPS30;30240;47.418;0.700;2023-04-08T08:14:08;9.916337;;9.704581;;;;;;;
44530;SPS30;30240;47.418;0.700;2023-04-08T08:16:33;10.634213;;10.32878;;;;;;;
44530;SPS30;30240;47.418;0.700;2023-04-08T08:18:59;10.910836;;10.6830225;;;;;;;
44530;SPS30;30240;47.418;0.700;2023-04-08T08:21:23;9.528757;;9.414833;;;;;;;
44530;SPS30;30240;47.418;0.700;2023-04-08T08:23:50;9.528757;;9.414833;;;;;;;
44530;SPS30;30240;47.418;0.700;2023-04-08T08:26:13;10.08664;;9.799259;;;;;;;
44530;SPS30;30240;47.418;0.700;2023-04-08T08:28:39;11.02839;;10.876118;;;;;;;
44530;SPS30;30240;47.418;0.700;2023-04-08T08:31:04;10.450175;;10.146393;;;;;;;
44530;SPS30;30240;47.418;0.700;2023-04-08T08:33:28;10.422593;;10.105599;;;;;;;
44530;SPS30;30240;47.418;0.700;2023-04-08T08:35:53;10.422593;;10.105599;;;;;;;
44530;SPS30;30240;47.418;0.700;2023-04-08T08:38:18;10.856163;;10.614798;;;;;;;
44530;SPS30;30240;47.418;0.700;2023-04-08T08:40:44;10.536088;;10.439692;;;;;;;
44530;SPS30;30240;47.418;0.700;2023-04-08T08:43:08;10.403586;;10.305637;;;;;;;
44530;SPS30;30240;47.418;0.700;2023-04-08T08:45:37;9.565351;;9.338798;;;;;;;
44530;SPS30;30240;47.418;0.700;2023-04-08T08:47:58;9.565351;;9.338798;;;;;;;
44530;SPS30;30240;47.418;0.700;2023-04-08T08:50:23;10.104403;;9.76031;;;;;;;
44530;SPS30;30240;47.418;0.700;2023-04-08T08:52:49;9.777467;;9.609759;;;;;;;
44530;SPS30;30240;47.418;0.700;2023-04-08T08:55:13;10.702666;;10.467631;;;;;;;
44530;SPS30;30240;47.418;0.700;2023-04-08T08:57:38;9.735345;;9.587953;;;;;;;
44530;SPS30;30240;47.418;0.700;2023-04-08T09:00:04;9.735345;;9.587953;;;;;;;
44530;SPS30;30240;47.418;0.700;2023-04-08T09:02:29;10.46199;;10.255614;;;;;;;
44530;SPS30;30240;47.418;0.700;2023-04-08T09:04:54;9.728302;;9.351782;;;;;;;
44530;SPS30;30240;47.418;0.700;2023-04-08T09:07:19;9.087394;;8.942074;;;;;;;
44530;SPS30;30240;47.418;0.700;2023-04-08T09:09:46;9.298382;;9.139015;;;;;;;
44530;SPS30;30240;47.418;0.700;2023-04-08T09:12:09;9.298382;;9.139015;;;;;;;
44530;SPS30;30240;47.418;0.700;2023-04-08T09:14:33;9.043131;;8.820699;;;;;;;
44530;SPS30;30240;47.418;0.700;2023-04-08T09:16:58;9.646678;;9.477792;;;;;;;
44530;SPS30;30240;47.418;0.700;2023-04-08T09:19:23;9.47916;;9.295062;;;;;;;
44530;SPS30;30240;47.418;0.700;2023-04-08T09:22:04;10.173099;;9.9188795;;;;;;;
44530;SPS30;30240;47.418;0.700;2023-04-08T09:24:26;10.173099;;9.9188795;;;;;;;
44530;SPS30;30240;47.418;0.700;2023-04-08T09:26:38;9.435858;;9.218179;;;;;;;
44530;SPS30;30240;47.418;0.700;2023-04-08T09:29:05;8.443073;;8.27766;;;;;;;
44530;SPS30;30240;47.418;0.700;2023-04-08T09:31:29;9.028754;;8.984558;;;;;;;
44530;SPS30;30240;47.418;0.700;2023-04-08T09:33:54;8.701802;;8.54931;;;;;;;
44530;SPS30;30240;47.418;0.700;2023-04-08T09:36:18;8.585871;;8.488811;;;;;;;
44530;SPS30;30240;47.418;0.700;2023-04-08T09:38:44;8.585871;;8.488811;;;;;;;
44530;SPS30;30240;47.418;0.700;2023-04-08T09:41:10;8.283118;;8.248168;;;;;;;
44530;SPS30;30240;47.418;0.700;2023-04-08T09:43:34;10.34424;;10.250834;;;;;;;
44530;SPS30;30240;47.418;0.700;2023-04-08T09:45:58;9.322286;;9.105001;;;;;;;
44530;SPS30;30240;47.418;0.700;2023-04-08T09:48:23;8.879665;;8.754699;;;;;;;
44530;SPS30;30240;47.418;0.700;2023-04-08T09:50:49;8.879665;;8.754699;;;;;;;
44530;SPS30;30240;47.418;0.700;2023-04-08T09:53:16;7.7291327;;7.6111403;;;;;;;
44530;SPS30;30240;47.418;0.700;2023-04-08T09:55:38;8.659601;;8.557036;;;;;;;
44530;SPS30;30240;47.418;0.700;2023-04-08T09:58:06;7.7247877;;7.639024;;;;;;;
44530;SPS30;30240;47.418;0.700;2023-04-08T10:00:29;7.9522257;;7.897292;;;;;;;
44530;SPS30;30240;47.418;0.700;2023-04-08T10:02:54;7.9522257;;7.897292;;;;;;;
44530;SPS30;30240;47.418;0.700;2023-04-08T10:05:18;8.165043;;8.055007;;;;;;;
44530;SPS30;30240;47.418;0.700;2023-04-08T10:07:43;8.01341;;7.9222736;;;;;;;
44530;SPS30;30240;47.418;0.700;2023-04-08T10:10:09;7.940079;;7.8305473;;;;;;;
44530;SPS30;30240;47.418;0.700;2023-04-08T10:12:33;7.906451;;7.7274117;;;;;;;
44530;SPS30;30240;47.418;0.700;2023-04-08T10:15:24;7.906451;;7.7274117;;;;;;;
44530;SPS30;30240;47.418;0.700;2023-04-08T10:17:24;7.5714126;;7.4558253;;;;;;;
44530;SPS30;30240;47.418;0.700;2023-04-08T10:19:48;6.4728413;;6.4389586;;;;;;;
44530;SPS30;30240;47.418;0.700;2023-04-08T10:22:45;6.5542307;;6.5398517;;;;;;;
44530;SPS30;30240;47.418;0.700;2023-04-08T10:24:39;7.0089383;;6.937287;;;;;;;
44530;SPS30;30240;47.418;0.700;2023-04-08T10:27:04;7.0089383;;6.937287;;;;;;;
44530;SPS30;30240;47.418;0.700;2023-04-08T10:27:24;7.0089383;;6.937287;;;;;;;
44530;SPS30;30240;47.418;0.700;2023-04-08T10:29:30;7.481142;;7.419725;;;;;;;
44530;SPS30;30240;47.418;0.700;2023-04-08T10:31:53;7.709938;;7.709938;;;;;;;
44530;SPS30;30240;47.418;0.700;2023-04-08T10:34:19;7.722649;;7.6794376;;;;;;;
44530;SPS30;30240;47.418;0.700;2023-04-08T10:36:44;7.8994794;;7.816882;;;;;;;
44530;SPS30;30240;47.418;0.700;2023-04-08T10:39:08;7.8994794;;7.816882;;;;;;;
44530;SPS30;30240;47.418;0.700;2023-04-08T10:41:33;6.3278456;;6.2761135;;;;;;;
44530;SPS30;30240;47.418;0.700;2023-04-08T10:44:02;6.9215136;;6.864138;;;;;;;
44530;SPS30;30240;47.418;0.700;2023-04-08T10:46:26;6.800514;;6.7208524;;;;;;;
44530;SPS30;30240;47.418;0.700;2023-04-08T10:48:58;6.3139935;;6.2282267;;;;;;;
44530;SPS30;30240;47.418;0.700;2023-04-08T10:51:13;6.3139935;;6.2282267;;;;;;;
44530;SPS30;30240;47.418;0.700;2023-04-08T10:53:38;5.943393;;5.926676;;;;;;;
44530;SPS30;30240;47.418;0.700;2023-04-08T10:56:04;6.014964;;6.014964;;;;;;;
44530;SPS30;30240;47.418;0.700;2023-04-08T10:58:28;6.3694444;;6.3394275;;;;;;;
44530;SPS30;30240;47.418;0.700;2023-04-08T11:00:53;6.7078896;;6.700373;;;;;;;
44530;SPS30;30240;47.418;0.700;2023-04-08T11:03:18;7.120848;;7.120848;;;;;;;
44530;SPS30;30240;47.418;0.700;2023-04-08T11:05:44;7.120848;;7.120848;;;;;;;
44530;SPS30;30240;47.418;0.700;2023-04-08T11:08:08;5.7525244;;5.7525244;;;;;;;
44530;SPS30;30240;47.418;0.700;2023-04-08T11:10:35;5.1290236;;5.102721;;;;;;;
44530;SPS30;30240;47.418;0.700;2023-04-08T11:12:58;5.5929523;;5.5929523;;;;;;;
44530;SPS30;30240;47.418;0.700;2023-04-08T11:15:23;6.56904;;6.5054865;;;;;;;
44530;SPS30;30240;47.418;0.700;2023-04-08T11:17:49;6.56904;;6.5054865;;;;;;;
44530;SPS30;30240;47.418;0.700;2023-04-08T11:20:13;5.9355636;;5.8489814;;;;;;;
44530;SPS30;30240;47.418;0.700;2023-04-08T11:22:39;5.2364798;;5.2295227;;;;;;;
44530;SPS30;30240;47.418;0.700;2023-04-08T11:25:04;6.3636584;;6.3636584;;;;;;;
44530;SPS30;30240;47.418;0.700;2023-04-08T11:27:28;6.0557623;;6.011468;;;;;;;
44530;SPS30;30240;47.418;0.700;2023-04-08T11:29:54;6.0557623;;6.011468;;;;;;;
44530;SPS30;30240;47.418;0.700;2023-04-08T11:32:18;5.3157024;;5.271964;;;;;;;
44530;SPS30;30240;47.418;0.700;2023-04-08T11:34:43;4.9504857;;4.9339542;;;;;;;
44530;SPS30;30240;47.418;0.700;2023-04-08T11:37:08;6.2476053;;6.2476053;;;;;;;
44530;SPS30;30240;47.418;0.700;2023-04-08T11:39:33;7.5472813;;7.4892845;;;;;;;
44530;SPS30;30240;47.418;0.700;2023-04-08T11:39:39;7.5472813;;7.4892845;;;;;;;
44530;SPS30;30240;47.418;0.700;2023-04-08T11:41:58;7.5472813;;7.4892845;;;;;;;
44530;SPS30;30240;47.418;0.700;2023-04-08T11:44:28;6.8498335;;6.8050036;;;;;;;
44530;SPS30;30240;47.418;0.700;2023-04-08T11:46:51;6.5658875;;6.5658875;;;;;;;
44530;SPS30;30240;47.418;0.700;2023-04-08T11:49:13;5.815029;;5.815029;;;;;;;
44530;SPS30;30240;47.418;0.700;2023-04-08T11:51:54;5.8180594;;5.8180594;;;;;;;
44530;SPS30;30240;47.418;0.700;2023-04-08T11:54:04;5.8180594;;5.8180594;;;;;;;
44530;SPS30;30240;47.418;0.700;2023-04-08T11:56:28;5.284262;;5.284262;;;;;;;
44530;SPS30;30240;47.418;0.700;2023-04-08T11:58:53;5.496309;;5.491354;;;;;;;
44530;SPS30;30240;47.418;0.700;2023-04-08T12:01:18;4.2726736;;4.236686;;;;;;;
44530;SPS30;30240;47.418;0.700;2023-04-08T12:03:54;5.4362764;;5.4355774;;;;;;;
44530;SPS30;30240;47.418;0.700;2023-04-08T12:06:08;5.4362764;;5.4355774;;;;;;;
44530;SPS30;30240;47.418;0.700;2023-04-08T12:08:33;5.1260734;;5.104957;;;;;;;
44530;SPS30;30240;47.418;0.700;2023-04-08T12:10:58;4.685681;;4.684109;;;;;;;
44530;SPS30;30240;47.418;0.700;2023-04-08T12:13:23;4.595561;;4.595561;;;;;;;